sensor_id;sensor_type;location;lat;lon;timestamp;P1;durP1;ratioP1;P2;durP2;ratioP2
80193;SDS011;69515;42.072;21.504;2024-03-22T00:00:37;6.22;;;2.88;;
80193;SDS011;69515;42.072;21.504;2024-03-22T00:03:03;5.20;;;2.35;;
80193;SDS011;69515;42.072;21.504;2024-03-22T00:05:29;5.38;;;2.40;;
80193;SDS011;69515;42.072;21.504;2024-03-22T00:07:55;6.13;;;3.10;;
80193;SDS011;69515;42.072;21.504;2024-03-22T00:12:50;6.97;;;2.63;;
80193;SDS011;69515;42.072;21.504;2024-03-22T00:15:16;4.85;;;2.58;;
80193;SDS011;69515;42.072;21.504;2024-03-22T00:17:44;5.53;;;2.53;;
80193;SDS011;69515;42.072;21.504;2024-03-22T00:20:10;6.28;;;2.97;;
80193;SDS011;69515;42.072;21.504;2024-03-22T00:22:36;5.88;;;2.90;;
80193;SDS011;69515;42.072;21.504;2024-03-22T00:27:29;8.23;;;2.60;;
80193;SDS011;69515;42.072;21.504;2024-03-22T00:32:22;7.00;;;3.00;;
80193;SDS011;69515;42.072;21.504;2024-03-22T00:34:48;5.80;;;2.97;;
80193;SDS011;69515;42.072;21.504;2024-03-22T00:37:14;7.47;;;2.85;;
80193;SDS011;69515;42.072;21.504;2024-03-22T00:39:41;6.25;;;2.85;;
80193;SDS011;69515;42.072;21.504;2024-03-22T00:42:07;6.35;;;3.05;;
80193;SDS011;69515;42.072;21.504;2024-03-22T00:46:59;5.78;;;2.80;;
80193;SDS011;69515;42.072;21.504;2024-03-22T00:49:28;6.80;;;3.10;;
80193;SDS011;69515;42.072;21.504;2024-03-22T00:51:54;6.82;;;2.90;;
80193;SDS011;69515;42.072;21.504;2024-03-22T00:54:21;6.63;;;2.70;;
80193;SDS011;69515;42.072;21.504;2024-03-22T00:56:47;6.50;;;3.13;;
80193;SDS011;69515;42.072;21.504;2024-03-22T01:01:40;5.97;;;3.10;;
80193;SDS011;69515;42.072;21.504;2024-03-22T01:04:06;6.88;;;2.80;;
80193;SDS011;69515;42.072;21.504;2024-03-22T01:06:34;12.68;;;3.78;;
80193;SDS011;69515;42.072;21.504;2024-03-22T01:09:00;7.85;;;3.38;;
80193;SDS011;69515;42.072;21.504;2024-03-22T01:11:28;10.05;;;3.13;;
80193;SDS011;69515;42.072;21.504;2024-03-22T01:13:55;6.50;;;2.83;;
80193;SDS011;69515;42.072;21.504;2024-03-22T01:16:21;7.25;;;3.30;;
80193;SDS011;69515;42.072;21.504;2024-03-22T01:21:13;6.40;;;2.85;;
80193;SDS011;69515;42.072;21.504;2024-03-22T01:23:39;7.05;;;3.40;;
80193;SDS011;69515;42.072;21.504;2024-03-22T01:26:06;6.30;;;3.38;;
80193;SDS011;69515;42.072;21.504;2024-03-22T01:30:58;7.45;;;2.90;;
80193;SDS011;69515;42.072;21.504;2024-03-22T01:35:50;6.53;;;3.55;;
80193;SDS011;69515;42.072;21.504;2024-03-22T01:38:16;6.88;;;3.53;;
80193;SDS011;69515;42.072;21.504;2024-03-22T01:40:42;6.68;;;3.50;;
80193;SDS011;69515;42.072;21.504;2024-03-22T01:45:35;9.43;;;3.58;;
80193;SDS011;69515;42.072;21.504;2024-03-22T01:48:02;6.72;;;3.58;;
80193;SDS011;69515;42.072;21.504;2024-03-22T01:50:29;6.05;;;3.10;;
80193;SDS011;69515;42.072;21.504;2024-03-22T01:52:55;8.00;;;3.85;;
80193;SDS011;69515;42.072;21.504;2024-03-22T01:55:22;9.05;;;4.00;;
80193;SDS011;69515;42.072;21.504;2024-03-22T01:57:49;7.68;;;3.53;;
80193;SDS011;69515;42.072;21.504;2024-03-22T02:00:15;5.60;;;3.10;;
80193;SDS011;69515;42.072;21.504;2024-03-22T02:02:41;7.68;;;3.42;;
80193;SDS011;69515;42.072;21.504;2024-03-22T02:07:34;9.48;;;3.97;;
80193;SDS011;69515;42.072;21.504;2024-03-22T02:10:00;8.38;;;3.97;;
80193;SDS011;69515;42.072;21.504;2024-03-22T02:12:26;8.40;;;4.05;;
80193;SDS011;69515;42.072;21.504;2024-03-22T02:14:52;7.18;;;4.00;;
80193;SDS011;69515;42.072;21.504;2024-03-22T02:19:44;10.85;;;3.92;;
80193;SDS011;69515;42.072;21.504;2024-03-22T02:22:11;7.13;;;4.03;;
80193;SDS011;69515;42.072;21.504;2024-03-22T02:24:37;8.05;;;4.55;;
80193;SDS011;69515;42.072;21.504;2024-03-22T02:27:03;8.15;;;3.38;;
80193;SDS011;69515;42.072;21.504;2024-03-22T02:31:55;10.18;;;4.03;;
80193;SDS011;69515;42.072;21.504;2024-03-22T02:34:23;9.68;;;4.00;;
80193;SDS011;69515;42.072;21.504;2024-03-22T02:36:49;7.90;;;4.20;;
80193;SDS011;69515;42.072;21.504;2024-03-22T02:41:41;7.82;;;4.38;;
80193;SDS011;69515;42.072;21.504;2024-03-22T02:46:33;9.55;;;4.68;;
80193;SDS011;69515;42.072;21.504;2024-03-22T02:49:00;8.75;;;4.65;;
80193;SDS011;69515;42.072;21.504;2024-03-22T02:53:52;9.27;;;4.63;;
80193;SDS011;69515;42.072;21.504;2024-03-22T02:58:44;8.43;;;4.47;;
80193;SDS011;69515;42.072;21.504;2024-03-22T03:03:36;10.20;;;5.45;;
80193;SDS011;69515;42.072;21.504;2024-03-22T03:08:29;9.43;;;4.90;;
80193;SDS011;69515;42.072;21.504;2024-03-22T03:10:55;10.82;;;5.97;;
80193;SDS011;69515;42.072;21.504;2024-03-22T03:13:21;7.75;;;4.63;;
80193;SDS011;69515;42.072;21.504;2024-03-22T03:18:13;9.52;;;4.72;;
80193;SDS011;69515;42.072;21.504;2024-03-22T03:20:39;11.73;;;5.10;;
80193;SDS011;69515;42.072;21.504;2024-03-22T03:23:06;9.88;;;5.03;;
80193;SDS011;69515;42.072;21.504;2024-03-22T03:25:32;10.15;;;4.78;;
80193;SDS011;69515;42.072;21.504;2024-03-22T03:30:24;8.43;;;4.88;;
80193;SDS011;69515;42.072;21.504;2024-03-22T03:32:51;10.35;;;5.30;;
80193;SDS011;69515;42.072;21.504;2024-03-22T03:35:17;9.38;;;5.53;;
80193;SDS011;69515;42.072;21.504;2024-03-22T03:37:43;11.57;;;5.55;;
80193;SDS011;69515;42.072;21.504;2024-03-22T03:40:10;9.20;;;4.88;;
80193;SDS011;69515;42.072;21.504;2024-03-22T03:42:36;10.57;;;4.75;;
80193;SDS011;69515;42.072;21.504;2024-03-22T03:45:02;9.90;;;5.53;;
80193;SDS011;69515;42.072;21.504;2024-03-22T03:47:28;11.63;;;5.20;;
80193;SDS011;69515;42.072;21.504;2024-03-22T03:52:20;9.98;;;5.05;;
80193;SDS011;69515;42.072;21.504;2024-03-22T03:57:13;12.30;;;5.32;;
80193;SDS011;69515;42.072;21.504;2024-03-22T04:02:05;8.68;;;4.60;;
80193;SDS011;69515;42.072;21.504;2024-03-22T04:04:31;8.25;;;4.70;;
80193;SDS011;69515;42.072;21.504;2024-03-22T04:06:57;10.13;;;4.32;;
80193;SDS011;69515;42.072;21.504;2024-03-22T04:09:24;9.80;;;4.57;;
80193;SDS011;69515;42.072;21.504;2024-03-22T04:11:50;7.65;;;4.35;;
80193;SDS011;69515;42.072;21.504;2024-03-22T04:16:42;7.07;;;3.97;;
80193;SDS011;69515;42.072;21.504;2024-03-22T04:21:34;8.38;;;4.25;;
80193;SDS011;69515;42.072;21.504;2024-03-22T04:24:00;9.98;;;5.13;;
80193;SDS011;69515;42.072;21.504;2024-03-22T04:26:27;8.73;;;4.03;;
80193;SDS011;69515;42.072;21.504;2024-03-22T04:31:19;8.73;;;4.00;;
80193;SDS011;69515;42.072;21.504;2024-03-22T04:36:11;7.53;;;3.90;;
80193;SDS011;69515;42.072;21.504;2024-03-22T04:41:03;6.90;;;4.03;;
80193;SDS011;69515;42.072;21.504;2024-03-22T04:43:29;7.88;;;3.97;;
80193;SDS011;69515;42.072;21.504;2024-03-22T04:48:22;8.05;;;4.00;;
80193;SDS011;69515;42.072;21.504;2024-03-22T04:50:49;7.05;;;3.83;;
80193;SDS011;69515;42.072;21.504;2024-03-22T04:53:16;6.22;;;3.42;;
80193;SDS011;69515;42.072;21.504;2024-03-22T04:55:42;7.72;;;3.92;;
80193;SDS011;69515;42.072;21.504;2024-03-22T04:58:19;8.27;;;4.10;;
80193;SDS011;69515;42.072;21.504;2024-03-22T05:00:46;7.75;;;3.95;;
80193;SDS011;69515;42.072;21.504;2024-03-22T05:03:12;7.82;;;3.70;;
80193;SDS011;69515;42.072;21.504;2024-03-22T05:05:39;7.03;;;3.67;;
80193;SDS011;69515;42.072;21.504;2024-03-22T05:08:05;7.25;;;3.45;;
80193;SDS011;69515;42.072;21.504;2024-03-22T05:10:32;6.53;;;3.65;;
80193;SDS011;69515;42.072;21.504;2024-03-22T05:15:24;8.02;;;3.65;;
80193;SDS011;69515;42.072;21.504;2024-03-22T05:17:53;6.90;;;3.28;;
80193;SDS011;69515;42.072;21.504;2024-03-22T05:20:20;8.00;;;3.83;;
80193;SDS011;69515;42.072;21.504;2024-03-22T05:22:46;8.95;;;4.38;;
80193;SDS011;69515;42.072;21.504;2024-03-22T05:25:13;6.45;;;3.78;;
80193;SDS011;69515;42.072;21.504;2024-03-22T05:27:40;8.43;;;3.80;;
80193;SDS011;69515;42.072;21.504;2024-03-22T05:30:07;7.80;;;3.75;;
80193;SDS011;69515;42.072;21.504;2024-03-22T05:32:33;11.13;;;4.00;;
80193;SDS011;69515;42.072;21.504;2024-03-22T05:37:26;9.32;;;4.32;;
80193;SDS011;69515;42.072;21.504;2024-03-22T05:42:18;9.82;;;4.97;;
80193;SDS011;69515;42.072;21.504;2024-03-22T05:47:10;9.57;;;5.07;;
80193;SDS011;69515;42.072;21.504;2024-03-22T05:52:02;8.82;;;4.85;;
80193;SDS011;69515;42.072;21.504;2024-03-22T05:54:28;7.43;;;4.13;;
80193;SDS011;69515;42.072;21.504;2024-03-22T05:56:55;9.10;;;4.35;;
80193;SDS011;69515;42.072;21.504;2024-03-22T05:59:21;9.32;;;4.57;;
80193;SDS011;69515;42.072;21.504;2024-03-22T06:01:48;9.38;;;4.47;;
80193;SDS011;69515;42.072;21.504;2024-03-22T06:04:14;9.02;;;4.60;;
80193;SDS011;69515;42.072;21.504;2024-03-22T06:06:40;10.30;;;4.38;;
80193;SDS011;69515;42.072;21.504;2024-03-22T06:09:06;8.75;;;4.47;;
80193;SDS011;69515;42.072;21.504;2024-03-22T06:11:38;9.15;;;4.65;;
80193;SDS011;69515;42.072;21.504;2024-03-22T06:14:09;7.80;;;3.85;;
80193;SDS011;69515;42.072;21.504;2024-03-22T06:16:35;8.63;;;4.68;;
80193;SDS011;69515;42.072;21.504;2024-03-22T06:19:01;7.82;;;4.68;;
80193;SDS011;69515;42.072;21.504;2024-03-22T06:21:28;9.85;;;4.45;;
80193;SDS011;69515;42.072;21.504;2024-03-22T06:23:54;7.40;;;3.95;;
80193;SDS011;69515;42.072;21.504;2024-03-22T06:26:20;8.65;;;4.50;;
80193;SDS011;69515;42.072;21.504;2024-03-22T06:28:47;9.43;;;5.05;;
80193;SDS011;69515;42.072;21.504;2024-03-22T06:31:13;11.65;;;5.65;;
80193;SDS011;69515;42.072;21.504;2024-03-22T06:33:39;11.70;;;5.00;;
80193;SDS011;69515;42.072;21.504;2024-03-22T06:36:05;9.15;;;4.85;;
80193;SDS011;69515;42.072;21.504;2024-03-22T06:38:32;9.27;;;5.07;;
80193;SDS011;69515;42.072;21.504;2024-03-22T06:40:58;10.02;;;5.40;;
80193;SDS011;69515;42.072;21.504;2024-03-22T06:43:24;9.75;;;5.05;;
80193;SDS011;69515;42.072;21.504;2024-03-22T06:45:50;8.65;;;4.88;;
80193;SDS011;69515;42.072;21.504;2024-03-22T06:48:17;10.80;;;5.95;;
80193;SDS011;69515;42.072;21.504;2024-03-22T06:50:44;11.32;;;5.65;;
80193;SDS011;69515;42.072;21.504;2024-03-22T06:53:16;9.45;;;5.32;;
80193;SDS011;69515;42.072;21.504;2024-03-22T06:55:42;8.38;;;5.20;;
80193;SDS011;69515;42.072;21.504;2024-03-22T06:58:09;9.38;;;5.53;;
80193;SDS011;69515;42.072;21.504;2024-03-22T07:00:37;10.13;;;5.53;;
80193;SDS011;69515;42.072;21.504;2024-03-22T07:03:05;11.57;;;5.40;;
80193;SDS011;69515;42.072;21.504;2024-03-22T07:05:35;11.50;;;5.97;;
80193;SDS011;69515;42.072;21.504;2024-03-22T07:08:01;10.65;;;5.82;;
80193;SDS011;69515;42.072;21.504;2024-03-22T07:10:48;9.32;;;6.22;;
80193;SDS011;69515;42.072;21.504;2024-03-22T07:13:41;11.10;;;6.32;;
80193;SDS011;69515;42.072;21.504;2024-03-22T07:16:35;11.23;;;6.88;;
80193;SDS011;69515;42.072;21.504;2024-03-22T07:19:03;11.60;;;6.38;;
80193;SDS011;69515;42.072;21.504;2024-03-22T07:21:31;13.30;;;7.13;;
80193;SDS011;69515;42.072;21.504;2024-03-22T07:23:58;10.40;;;6.85;;
80193;SDS011;69515;42.072;21.504;2024-03-22T07:26:27;13.60;;;6.72;;
80193;SDS011;69515;42.072;21.504;2024-03-22T07:28:53;18.92;;;7.00;;
80193;SDS011;69515;42.072;21.504;2024-03-22T07:31:20;11.27;;;6.93;;
80193;SDS011;69515;42.072;21.504;2024-03-22T07:33:46;11.23;;;6.60;;
80193;SDS011;69515;42.072;21.504;2024-03-22T07:36:15;10.07;;;5.97;;
80193;SDS011;69515;42.072;21.504;2024-03-22T07:38:45;11.85;;;6.22;;
80193;SDS011;69515;42.072;21.504;2024-03-22T07:41:11;11.88;;;6.32;;
80193;SDS011;69515;42.072;21.504;2024-03-22T07:43:39;13.10;;;6.22;;
80193;SDS011;69515;42.072;21.504;2024-03-22T07:46:06;11.15;;;6.40;;
80193;SDS011;69515;42.072;21.504;2024-03-22T07:48:34;11.38;;;6.10;;
80193;SDS011;69515;42.072;21.504;2024-03-22T07:51:01;12.70;;;6.70;;
80193;SDS011;69515;42.072;21.504;2024-03-22T07:53:27;9.23;;;6.00;;
80193;SDS011;69515;42.072;21.504;2024-03-22T07:55:54;10.23;;;6.22;;
80193;SDS011;69515;42.072;21.504;2024-03-22T07:58:40;10.98;;;6.45;;
80193;SDS011;69515;42.072;21.504;2024-03-22T08:01:08;12.60;;;6.57;;
80193;SDS011;69515;42.072;21.504;2024-03-22T08:03:35;10.20;;;6.18;;
80193;SDS011;69515;42.072;21.504;2024-03-22T08:06:02;14.57;;;6.47;;
80193;SDS011;69515;42.072;21.504;2024-03-22T08:08:28;11.43;;;6.20;;
80193;SDS011;69515;42.072;21.504;2024-03-22T08:10:54;11.98;;;5.68;;
80193;SDS011;69515;42.072;21.504;2024-03-22T08:13:20;11.00;;;5.78;;
80193;SDS011;69515;42.072;21.504;2024-03-22T08:15:47;12.15;;;5.60;;
80193;SDS011;69515;42.072;21.504;2024-03-22T08:18:13;12.25;;;6.05;;
80193;SDS011;69515;42.072;21.504;2024-03-22T08:20:39;10.38;;;5.28;;
80193;SDS011;69515;42.072;21.504;2024-03-22T08:23:05;10.18;;;5.70;;
80193;SDS011;69515;42.072;21.504;2024-03-22T08:25:32;10.85;;;5.10;;
80193;SDS011;69515;42.072;21.504;2024-03-22T08:27:58;10.57;;;5.78;;
80193;SDS011;69515;42.072;21.504;2024-03-22T08:30:25;12.48;;;5.30;;
80193;SDS011;69515;42.072;21.504;2024-03-22T08:36:02;8.98;;;5.38;;
80193;SDS011;69515;42.072;21.504;2024-03-22T08:38:28;10.45;;;5.40;;
80193;SDS011;69515;42.072;21.504;2024-03-22T08:40:55;8.38;;;4.85;;
80193;SDS011;69515;42.072;21.504;2024-03-22T08:43:21;11.40;;;5.03;;
80193;SDS011;69515;42.072;21.504;2024-03-22T08:45:51;11.23;;;5.35;;
80193;SDS011;69515;42.072;21.504;2024-03-22T08:48:37;10.25;;;5.50;;
80193;SDS011;69515;42.072;21.504;2024-03-22T08:51:04;11.38;;;5.85;;
80193;SDS011;69515;42.072;21.504;2024-03-22T08:53:33;10.20;;;5.20;;
80193;SDS011;69515;42.072;21.504;2024-03-22T08:56:00;10.43;;;5.55;;
80193;SDS011;69515;42.072;21.504;2024-03-22T08:58:27;10.20;;;5.20;;
80193;SDS011;69515;42.072;21.504;2024-03-22T09:00:54;10.45;;;4.93;;
80193;SDS011;69515;42.072;21.504;2024-03-22T09:03:21;9.25;;;5.00;;
80193;SDS011;69515;42.072;21.504;2024-03-22T09:05:52;9.50;;;5.05;;
80193;SDS011;69515;42.072;21.504;2024-03-22T09:08:22;10.45;;;5.15;;
80193;SDS011;69515;42.072;21.504;2024-03-22T09:10:49;10.50;;;4.95;;
80193;SDS011;69515;42.072;21.504;2024-03-22T09:13:16;10.13;;;4.95;;
80193;SDS011;69515;42.072;21.504;2024-03-22T09:15:44;9.73;;;5.28;;
80193;SDS011;69515;42.072;21.504;2024-03-22T09:18:10;9.98;;;5.10;;
80193;SDS011;69515;42.072;21.504;2024-03-22T09:20:36;9.25;;;4.70;;
80193;SDS011;69515;42.072;21.504;2024-03-22T09:23:03;9.95;;;4.70;;
80193;SDS011;69515;42.072;21.504;2024-03-22T09:25:30;10.07;;;4.85;;
80193;SDS011;69515;42.072;21.504;2024-03-22T09:27:57;7.95;;;4.85;;
80193;SDS011;69515;42.072;21.504;2024-03-22T09:30:24;10.95;;;5.40;;
80193;SDS011;69515;42.072;21.504;2024-03-22T09:32:51;9.25;;;5.05;;
80193;SDS011;69515;42.072;21.504;2024-03-22T09:35:17;9.25;;;4.72;;
80193;SDS011;69515;42.072;21.504;2024-03-22T09:37:45;9.32;;;5.43;;
80193;SDS011;69515;42.072;21.504;2024-03-22T09:40:12;9.35;;;5.00;;
80193;SDS011;69515;42.072;21.504;2024-03-22T09:42:38;10.07;;;5.57;;
80193;SDS011;69515;42.072;21.504;2024-03-22T09:45:08;8.50;;;4.72;;
80193;SDS011;69515;42.072;21.504;2024-03-22T09:47:36;11.50;;;5.30;;
80193;SDS011;69515;42.072;21.504;2024-03-22T09:50:04;11.95;;;5.05;;
80193;SDS011;69515;42.072;21.504;2024-03-22T09:52:33;10.18;;;4.72;;
80193;SDS011;69515;42.072;21.504;2024-03-22T09:54:59;8.48;;;4.60;;
80193;SDS011;69515;42.072;21.504;2024-03-22T09:57:28;9.32;;;4.97;;
80193;SDS011;69515;42.072;21.504;2024-03-22T09:59:56;9.57;;;5.57;;
80193;SDS011;69515;42.072;21.504;2024-03-22T10:02:22;8.05;;;4.50;;
80193;SDS011;69515;42.072;21.504;2024-03-22T10:04:51;9.88;;;5.20;;
80193;SDS011;69515;42.072;21.504;2024-03-22T10:07:19;10.98;;;5.30;;
80193;SDS011;69515;42.072;21.504;2024-03-22T10:09:46;10.45;;;5.68;;
80193;SDS011;69515;42.072;21.504;2024-03-22T10:12:16;9.43;;;5.82;;
80193;SDS011;69515;42.072;21.504;2024-03-22T10:14:43;12.07;;;6.18;;
80193;SDS011;69515;42.072;21.504;2024-03-22T10:17:10;10.30;;;5.57;;
80193;SDS011;69515;42.072;21.504;2024-03-22T10:19:37;9.20;;;5.47;;
80193;SDS011;69515;42.072;21.504;2024-03-22T10:22:06;9.50;;;5.93;;
80193;SDS011;69515;42.072;21.504;2024-03-22T10:24:33;11.57;;;6.85;;
80193;SDS011;69515;42.072;21.504;2024-03-22T10:29:43;9.45;;;5.00;;
80193;SDS011;69515;42.072;21.504;2024-03-22T10:32:10;11.25;;;5.35;;
80193;SDS011;69515;42.072;21.504;2024-03-22T10:34:41;11.10;;;5.63;;
80193;SDS011;69515;42.072;21.504;2024-03-22T10:37:08;9.52;;;5.63;;
80193;SDS011;69515;42.072;21.504;2024-03-22T10:39:36;8.68;;;5.38;;
80193;SDS011;69515;42.072;21.504;2024-03-22T10:42:26;9.00;;;5.18;;
80193;SDS011;69515;42.072;21.504;2024-03-22T10:44:53;10.80;;;5.35;;
80193;SDS011;69515;42.072;21.504;2024-03-22T10:47:19;9.70;;;5.43;;
80193;SDS011;69515;42.072;21.504;2024-03-22T10:49:48;8.40;;;4.80;;
80193;SDS011;69515;42.072;21.504;2024-03-22T10:52:16;9.38;;;5.15;;
80193;SDS011;69515;42.072;21.504;2024-03-22T10:54:43;9.82;;;5.72;;
80193;SDS011;69515;42.072;21.504;2024-03-22T10:57:12;10.88;;;5.38;;
80193;SDS011;69515;42.072;21.504;2024-03-22T10:59:42;7.55;;;4.45;;
80193;SDS011;69515;42.072;21.504;2024-03-22T11:02:13;10.10;;;5.22;;
80193;SDS011;69515;42.072;21.504;2024-03-22T11:04:40;11.00;;;5.20;;
80193;SDS011;69515;42.072;21.504;2024-03-22T11:07:06;7.55;;;4.43;;
80193;SDS011;69515;42.072;21.504;2024-03-22T11:09:34;8.70;;;5.13;;
80193;SDS011;69515;42.072;21.504;2024-03-22T11:12:01;9.70;;;4.57;;
80193;SDS011;69515;42.072;21.504;2024-03-22T11:14:49;28.40;;;5.57;;
80193;SDS011;69515;42.072;21.504;2024-03-22T11:17:20;9.25;;;5.15;;
80193;SDS011;69515;42.072;21.504;2024-03-22T11:19:51;8.55;;;4.15;;
80193;SDS011;69515;42.072;21.504;2024-03-22T11:22:18;10.48;;;4.85;;
80193;SDS011;69515;42.072;21.504;2024-03-22T11:24:44;10.15;;;4.90;;
80193;SDS011;69515;42.072;21.504;2024-03-22T11:27:11;9.95;;;4.93;;
80193;SDS011;69515;42.072;21.504;2024-03-22T11:29:37;10.57;;;5.03;;
80193;SDS011;69515;42.072;21.504;2024-03-22T11:32:06;8.70;;;4.90;;
80193;SDS011;69515;42.072;21.504;2024-03-22T11:34:34;10.18;;;4.80;;
80193;SDS011;69515;42.072;21.504;2024-03-22T11:37:00;10.80;;;4.70;;
80193;SDS011;69515;42.072;21.504;2024-03-22T11:39:27;10.05;;;5.30;;
80193;SDS011;69515;42.072;21.504;2024-03-22T11:41:53;8.65;;;4.60;;
80193;SDS011;69515;42.072;21.504;2024-03-22T11:44:20;8.88;;;4.57;;
80193;SDS011;69515;42.072;21.504;2024-03-22T11:46:50;9.45;;;5.30;;
80193;SDS011;69515;42.072;21.504;2024-03-22T11:49:17;12.95;;;5.10;;
80193;SDS011;69515;42.072;21.504;2024-03-22T11:51:44;11.48;;;4.53;;
80193;SDS011;69515;42.072;21.504;2024-03-22T11:54:11;9.43;;;4.85;;
80193;SDS011;69515;42.072;21.504;2024-03-22T11:56:57;8.27;;;4.85;;
80193;SDS011;69515;42.072;21.504;2024-03-22T11:59:50;9.93;;;5.20;;
80193;SDS011;69515;42.072;21.504;2024-03-22T12:02:17;8.35;;;4.78;;
80193;SDS011;69515;42.072;21.504;2024-03-22T12:04:45;8.38;;;5.18;;
80193;SDS011;69515;42.072;21.504;2024-03-22T12:07:15;8.93;;;4.75;;
80193;SDS011;69515;42.072;21.504;2024-03-22T12:09:42;7.68;;;4.55;;
80193;SDS011;69515;42.072;21.504;2024-03-22T12:12:10;6.97;;;4.25;;
80193;SDS011;69515;42.072;21.504;2024-03-22T12:14:36;8.93;;;4.50;;
80193;SDS011;69515;42.072;21.504;2024-03-22T12:17:02;9.80;;;4.63;;
80193;SDS011;69515;42.072;21.504;2024-03-22T12:19:29;7.43;;;4.45;;
80193;SDS011;69515;42.072;21.504;2024-03-22T12:21:55;7.60;;;4.55;;
80193;SDS011;69515;42.072;21.504;2024-03-22T12:24:22;8.90;;;4.75;;
80193;SDS011;69515;42.072;21.504;2024-03-22T12:26:49;8.13;;;4.50;;
80193;SDS011;69515;42.072;21.504;2024-03-22T12:29:16;9.18;;;5.13;;
80193;SDS011;69515;42.072;21.504;2024-03-22T12:31:42;10.93;;;5.55;;
80193;SDS011;69515;42.072;21.504;2024-03-22T12:34:08;8.45;;;4.68;;
80193;SDS011;69515;42.072;21.504;2024-03-22T12:36:34;8.50;;;4.25;;
80193;SDS011;69515;42.072;21.504;2024-03-22T12:39:01;8.27;;;4.53;;
80193;SDS011;69515;42.072;21.504;2024-03-22T12:41:31;7.82;;;4.30;;
80193;SDS011;69515;42.072;21.504;2024-03-22T12:43:58;8.70;;;4.97;;
80193;SDS011;69515;42.072;21.504;2024-03-22T12:46:25;8.75;;;4.75;;
80193;SDS011;69515;42.072;21.504;2024-03-22T12:48:52;9.15;;;4.70;;
80193;SDS011;69515;42.072;21.504;2024-03-22T12:51:19;9.57;;;4.78;;
80193;SDS011;69515;42.072;21.504;2024-03-22T12:53:45;7.65;;;4.75;;
80193;SDS011;69515;42.072;21.504;2024-03-22T12:56:12;7.25;;;4.30;;
80193;SDS011;69515;42.072;21.504;2024-03-22T12:58:38;9.40;;;4.55;;
80193;SDS011;69515;42.072;21.504;2024-03-22T13:01:04;9.10;;;4.72;;
80193;SDS011;69515;42.072;21.504;2024-03-22T13:03:31;8.23;;;4.60;;
80193;SDS011;69515;42.072;21.504;2024-03-22T13:05:58;10.07;;;4.63;;
80193;SDS011;69515;42.072;21.504;2024-03-22T13:08:24;8.02;;;4.25;;
80193;SDS011;69515;42.072;21.504;2024-03-22T13:10:50;8.93;;;4.40;;
80193;SDS011;69515;42.072;21.504;2024-03-22T13:13:18;13.95;;;4.70;;
80193;SDS011;69515;42.072;21.504;2024-03-22T13:16:12;7.15;;;4.13;;
80193;SDS011;69515;42.072;21.504;2024-03-22T13:18:41;13.30;;;5.15;;
80193;SDS011;69515;42.072;21.504;2024-03-22T13:21:08;9.95;;;4.97;;
80193;SDS011;69515;42.072;21.504;2024-03-22T13:23:37;10.48;;;4.90;;
80193;SDS011;69515;42.072;21.504;2024-03-22T13:26:23;9.77;;;4.80;;
80193;SDS011;69515;42.072;21.504;2024-03-22T13:29:11;7.25;;;4.22;;
80193;SDS011;69515;42.072;21.504;2024-03-22T13:31:39;9.75;;;4.40;;
80193;SDS011;69515;42.072;21.504;2024-03-22T13:34:09;8.85;;;4.90;;
80193;SDS011;69515;42.072;21.504;2024-03-22T13:36:37;10.65;;;4.68;;
80193;SDS011;69515;42.072;21.504;2024-03-22T13:39:04;7.57;;;4.28;;
80193;SDS011;69515;42.072;21.504;2024-03-22T13:41:31;10.10;;;4.43;;
80193;SDS011;69515;42.072;21.504;2024-03-22T13:43:58;7.38;;;4.20;;
80193;SDS011;69515;42.072;21.504;2024-03-22T13:46:34;9.07;;;4.55;;
80193;SDS011;69515;42.072;21.504;2024-03-22T13:49:03;12.43;;;4.57;;
80193;SDS011;69515;42.072;21.504;2024-03-22T13:51:30;11.05;;;4.68;;
80193;SDS011;69515;42.072;21.504;2024-03-22T13:53:59;9.25;;;4.50;;
80193;SDS011;69515;42.072;21.504;2024-03-22T13:56:27;8.43;;;4.25;;
80193;SDS011;69515;42.072;21.504;2024-03-22T13:59:13;8.95;;;3.92;;
80193;SDS011;69515;42.072;21.504;2024-03-22T14:02:01;9.60;;;4.40;;
80193;SDS011;69515;42.072;21.504;2024-03-22T14:04:28;9.20;;;4.53;;
80193;SDS011;69515;42.072;21.504;2024-03-22T14:06:55;6.47;;;4.00;;
80193;SDS011;69515;42.072;21.504;2024-03-22T14:09:21;10.00;;;4.78;;
80193;SDS011;69515;42.072;21.504;2024-03-22T14:11:48;8.93;;;4.35;;
80193;SDS011;69515;42.072;21.504;2024-03-22T14:14:34;9.60;;;4.22;;
80193;SDS011;69515;42.072;21.504;2024-03-22T14:17:01;8.88;;;4.20;;
80193;SDS011;69515;42.072;21.504;2024-03-22T14:19:28;9.23;;;4.63;;
80193;SDS011;69515;42.072;21.504;2024-03-22T14:21:55;8.68;;;4.20;;
80193;SDS011;69515;42.072;21.504;2024-03-22T14:24:22;8.70;;;4.20;;
80193;SDS011;69515;42.072;21.504;2024-03-22T14:26:53;9.05;;;3.78;;
80193;SDS011;69515;42.072;21.504;2024-03-22T14:29:20;11.85;;;4.18;;
80193;SDS011;69515;42.072;21.504;2024-03-22T14:31:46;6.72;;;4.32;;
80193;SDS011;69515;42.072;21.504;2024-03-22T14:34:13;8.63;;;4.03;;
80193;SDS011;69515;42.072;21.504;2024-03-22T14:36:40;7.65;;;3.75;;
80193;SDS011;69515;42.072;21.504;2024-03-22T14:39:26;8.20;;;4.13;;
80193;SDS011;69515;42.072;21.504;2024-03-22T14:41:52;8.02;;;4.22;;
80193;SDS011;69515;42.072;21.504;2024-03-22T14:44:20;8.15;;;4.55;;
80193;SDS011;69515;42.072;21.504;2024-03-22T14:46:47;8.02;;;4.25;;
80193;SDS011;69515;42.072;21.504;2024-03-22T14:49:14;8.60;;;4.10;;
80193;SDS011;69515;42.072;21.504;2024-03-22T14:51:40;7.63;;;4.07;;
80193;SDS011;69515;42.072;21.504;2024-03-22T14:54:07;8.23;;;4.13;;
80193;SDS011;69515;42.072;21.504;2024-03-22T14:59:27;6.38;;;3.67;;
80193;SDS011;69515;42.072;21.504;2024-03-22T15:08:00;6.38;;;3.28;;
80193;SDS011;69515;42.072;21.504;2024-03-22T15:10:29;6.70;;;3.63;;
80193;SDS011;69515;42.072;21.504;2024-03-22T15:12:59;6.75;;;3.35;;
80193;SDS011;69515;42.072;21.504;2024-03-22T15:15:27;8.43;;;3.30;;
80193;SDS011;69515;42.072;21.504;2024-03-22T15:17:58;5.78;;;3.30;;
80193;SDS011;69515;42.072;21.504;2024-03-22T15:20:25;5.97;;;3.47;;
80193;SDS011;69515;42.072;21.504;2024-03-22T15:22:56;6.95;;;3.28;;
80193;SDS011;69515;42.072;21.504;2024-03-22T15:25:23;6.38;;;3.40;;
80193;SDS011;69515;42.072;21.504;2024-03-22T15:27:50;6.53;;;3.53;;
80193;SDS011;69515;42.072;21.504;2024-03-22T15:30:17;5.55;;;3.13;;
80193;SDS011;69515;42.072;21.504;2024-03-22T15:32:45;8.50;;;3.70;;
80193;SDS011;69515;42.072;21.504;2024-03-22T15:35:11;6.13;;;3.13;;
80193;SDS011;69515;42.072;21.504;2024-03-22T15:37:39;7.25;;;3.40;;
80193;SDS011;69515;42.072;21.504;2024-03-22T15:40:10;6.28;;;3.25;;
80193;SDS011;69515;42.072;21.504;2024-03-22T15:42:37;6.07;;;3.50;;
80193;SDS011;69515;42.072;21.504;2024-03-22T15:45:03;5.68;;;3.05;;
80193;SDS011;69515;42.072;21.504;2024-03-22T15:47:33;4.88;;;2.65;;
80193;SDS011;69515;42.072;21.504;2024-03-22T15:50:01;6.28;;;3.22;;
80193;SDS011;69515;42.072;21.504;2024-03-22T15:52:27;7.57;;;3.30;;
80193;SDS011;69515;42.072;21.504;2024-03-22T15:54:53;4.90;;;2.83;;
80193;SDS011;69515;42.072;21.504;2024-03-22T16:03:26;6.10;;;3.05;;
80193;SDS011;69515;42.072;21.504;2024-03-22T16:05:52;8.90;;;4.10;;
80193;SDS011;69515;42.072;21.504;2024-03-22T16:08:19;10.98;;;3.85;;
80193;SDS011;69515;42.072;21.504;2024-03-22T16:10:46;11.10;;;4.03;;
80193;SDS011;69515;42.072;21.504;2024-03-22T16:13:12;10.63;;;5.07;;
80193;SDS011;69515;42.072;21.504;2024-03-22T16:15:39;7.93;;;3.90;;
80193;SDS011;69515;42.072;21.504;2024-03-22T16:18:05;10.15;;;5.30;;